Time;durP1;ratioP1;P1;durP2;ratioP2;P2;SDS_P1;SDS_P2;PMS_P1;PMS_P2;Temp;Humidity;BMP_temperature;BMP_pressure;BME280_temperature;BME280_humidity;BME280_pressure;Samples;Min_cycle;Max_cycle;Signal;HPM_P1;HPM_P2
2022/08/15 00:01:36;;;;;;;9.65;7.85;;;;;;;22.09;81.45;99546.25;6242686;28;20042;-93
2022/08/15 00:04:45;;;;;;;8.48;7.53;;;;;;;22.06;81.12;99551.97;6233350;28;20104;-92
2022/08/15 00:07:52;;;;;;;11.90;7.75;;;;;;;22.03;81.21;99552.41;6241759;28;20037;-92
2022/08/15 00:11:05;;;;;;;9.15;7.32;;;;;;;21.99;81.78;99551.25;6236489;28;20518;-92
2022/08/15 00:14:24;;;;;;;8.95;8.07;;;;;;;21.93;81.76;99545.00;6275060;28;20045;-92
2022/08/15 00:17:34;;;;;;;7.93;7.13;;;;;;;21.88;82.01;99547.50;6239693;28;20180;-92
2022/08/15 00:20:50;;;;;;;8.73;7.90;;;;;;;21.83;82.68;99549.97;6242813;28;20045;-92
2022/08/15 00:23:55;;;;;;;8.52;7.47;;;;;;;21.79;83.07;99551.44;6220520;28;20045;-92
2022/08/15 00:27:00;;;;;;;10.25;7.75;;;;;;;21.75;82.19;99542.38;6236321;28;20073;-92
2022/08/15 00:30:04;;;;;;;9.63;7.57;;;;;;;21.69;83.14;99547.50;6234770;28;20128;-92
2022/08/15 00:33:07;;;;;;;8.85;7.40;;;;;;;21.67;83.50;99543.47;6276268;28;20057;-92
2022/08/15 00:36:22;;;;;;;8.32;7.50;;;;;;;21.63;84.45;99542.28;6241170;28;20768;-92
2022/08/15 00:39:45;;;;;;;9.20;7.97;;;;;;;21.60;84.44;99548.78;6270997;28;20052;-91
2022/08/15 00:42:56;;;;;;;9.77;7.80;;;;;;;21.54;84.66;99540.94;6231602;28;20041;-92
2022/08/15 00:46:04;;;;;;;8.82;7.60;;;;;;;21.50;84.80;99543.22;6236801;28;20495;-91
2022/08/15 00:49:25;;;;;;;8.32;7.53;;;;;;;21.45;84.93;99538.59;6225900;28;20041;-92
2022/08/15 00:52:29;;;;;;;8.85;7.93;;;;;;;21.44;84.56;99530.91;6226240;28;20366;-92
2022/08/15 00:55:40;;;;;;;8.65;7.72;;;;;;;21.43;85.34;99527.47;6226183;28;20048;-92
2022/08/15 00:58:44;;;;;;;8.25;7.32;;;;;;;21.40;85.49;99527.91;6232326;28;20129;-92
2022/08/15 01:01:58;;;;;;;10.15;8.40;;;;;;;21.37;84.96;99522.25;6218321;28;20056;-91
2022/08/15 01:05:13;;;;;;;10.52;7.80;;;;;;;21.35;85.90;99517.19;6221805;28;20237;-92
2022/08/15 01:08:23;;;;;;;11.70;8.13;;;;;;;21.30;85.71;99507.31;6235632;28;20119;-91
2022/08/15 01:12:07;;;;;;;8.45;7.13;;;;;;;21.26;87.08;99516.66;6234642;28;20048;-92
2022/08/15 01:15:15;;;;;;;10.25;8.35;;;;;;;21.24;86.82;99517.88;6216025;28;20192;-92
2022/08/15 01:18:18;;;;;;;10.05;7.75;;;;;;;21.24;86.75;99520.53;6214621;28;20038;-92
2022/08/15 01:21:56;;;;;;;9.13;7.88;;;;;;;21.22;87.83;99523.38;6257016;28;20046;-92
2022/08/15 01:25:23;;;;;;;9.95;7.63;;;;;;;21.19;87.15;99517.72;6211082;28;20415;-92
2022/08/15 01:28:46;;;;;;;9.13;8.07;;;;;;;21.16;86.85;99520.81;6221785;28;20045;-92
2022/08/15 01:31:57;;;;;;;8.05;7.22;;;;;;;21.13;88.50;99515.97;6219699;28;20089;-92
2022/08/15 01:35:02;;;;;;;10.73;8.40;;;;;;;21.06;89.00;99513.38;6216758;28;20085;-92
2022/08/15 01:38:19;;;;;;;9.38;8.25;;;;;;;20.98;88.55;99511.81;6225324;28;21008;-91
2022/08/15 01:42:01;;;;;;;10.80;9.23;;;;;;;20.89;88.92;99515.72;6233128;28;20045;-92
2022/08/15 01:45:14;;;;;;;9.57;8.57;;;;;;;20.78;90.09;99513.81;6261542;28;20467;-92
2022/08/15 01:48:27;;;;;;;9.93;8.30;;;;;;;20.68;90.05;99509.00;6227031;28;20057;-92
2022/08/15 01:51:35;;;;;;;9.73;8.52;;;;;;;20.62;90.83;99512.47;6242257;28;20048;-92
2022/08/15 01:54:41;;;;;;;9.60;8.60;;;;;;;20.54;91.58;99504.81;6237151;28;20041;-92
2022/08/15 01:58:06;;;;;;;9.43;8.43;;;;;;;20.47;92.45;99507.50;6249603;28;20067;-91
2022/08/15 02:01:20;;;;;;;9.38;8.48;;;;;;;20.42;92.51;99500.22;6254217;28;20049;-92
2022/08/15 02:04:39;;;;;;;9.75;8.75;;;;;;;20.40;93.33;99496.22;6273733;28;20810;-91
2022/08/15 02:07:46;;;;;;;9.10;8.20;;;;;;;20.36;93.37;99495.00;6244403;28;20053;-92
2022/08/15 02:11:13;;;;;;;11.70;8.15;;;;;;;20.33;93.52;99496.22;6214707;28;20073;-91
2022/08/15 02:14:23;;;;;;;10.80;8.57;;;;;;;20.33;93.90;99490.97;6238505;28;20552;-91
2022/08/15 02:17:46;;;;;;;9.90;8.70;;;;;;;20.35;93.79;99488.16;6239112;28;20135;-91
2022/08/15 02:20:48;;;;;;;10.05;8.57;;;;;;;20.37;94.13;99480.84;6240409;28;20094;-91
2022/08/15 02:23:52;;;;;;;9.18;8.30;;;;;;;20.37;94.51;99468.53;6237737;28;20115;-92
2022/08/15 02:26:54;;;;;;;8.93;8.02;;;;;;;20.39;94.07;99473.53;6217034;28;20029;-91
2022/08/15 02:29:57;;;;;;;10.10;8.90;;;;;;;20.39;93.93;99474.34;6246647;28;20037;-91
2022/08/15 02:33:01;;;;;;;9.75;8.75;;;;;;;20.37;93.65;99465.06;6227820;28;20053;-91
2022/08/15 02:36:03;;;;;;;11.48;7.95;;;;;;;20.40;93.57;99464.66;6224159;28;20574;-91
2022/08/15 02:39:09;;;;;;;9.48;8.48;;;;;;;20.49;94.03;99468.63;6222247;28;20069;-91
2022/08/15 02:42:14;;;;;;;10.00;8.07;;;;;;;20.57;94.05;99465.78;6231042;28;20077;-91
2022/08/15 02:45:17;;;;;;;9.88;8.57;;;;;;;20.65;94.49;99470.00;6252771;28;20067;-91
2022/08/15 02:48:19;;;;;;;9.88;8.75;;;;;;;20.72;93.37;99470.75;6230146;28;20138;-92
2022/08/15 02:51:30;;;;;;;11.10;8.93;;;;;;;20.77;92.83;99468.28;6227417;28;20073;-91
2022/08/15 02:54:53;;;;;;;10.50;8.85;;;;;;;20.81;92.49;99461.56;6228239;28;20048;-91
2022/08/15 02:58:01;;;;;;;8.43;7.55;;;;;;;20.83;92.16;99469.25;6224389;28;20045;-91
2022/08/15 03:01:09;;;;;;;13.18;8.65;;;;;;;20.84;91.46;99469.03;6219957;28;20069;-91
2022/08/15 03:04:23;;;;;;;9.32;8.38;;;;;;;20.83;91.92;99464.00;6242741;28;20053;-91
2022/08/15 03:07:32;;;;;;;9.43;8.27;;;;;;;20.81;92.02;99456.31;6253105;28;20451;-91
2022/08/15 03:10:38;;;;;;;9.63;7.85;;;;;;;20.79;92.78;99454.91;6213011;28;20053;-91
2022/08/15 03:13:42;;;;;;;10.38;7.82;;;;;;;20.77;92.52;99459.56;6228607;28;20053;-91
2022/08/15 03:16:47;;;;;;;10.13;8.98;;;;;;;20.74;92.58;99462.63;6232765;28;20188;-92
2022/08/15 03:19:55;;;;;;;9.57;8.57;;;;;;;20.69;92.07;99447.50;6247258;28;20046;-91
2022/08/15 03:23:04;;;;;;;9.52;8.38;;;;;;;20.68;92.41;99455.59;6235990;28;20045;-92
2022/08/15 03:26:11;;;;;;;;;;;;;;;20.67;92.33;99454.81;6248126;28;20064;-91
2022/08/15 03:29:27;;;;;;;8.85;7.95;;;;;;;20.67;92.18;99446.91;6236493;28;19972;-91
2022/08/15 03:32:57;;;;;;;9.73;8.43;;;;;;;20.67;91.50;99446.91;6233484;28;20408;-91
2022/08/15 03:36:05;;;;;;;8.95;7.72;;;;;;;20.70;92.03;99454.38;6258749;28;20163;-92
2022/08/15 03:39:15;;;;;;;9.20;7.85;;;;;;;20.77;88.42;99446.41;6221646;28;20095;-91
2022/08/15 03:42:18;;;;;;;9.60;8.60;;;;;;;20.82;87.61;99447.41;6215393;28;20053;-91
2022/08/15 03:45:25;;;;;;;9.32;7.97;;;;;;;20.86;90.15;99447.78;6253934;28;20073;-91
2022/08/15 03:48:42;;;;;;;10.35;8.77;;;;;;;20.85;89.90;99436.44;6253181;28;20499;-91
2022/08/15 03:51:58;;;;;;;9.85;8.43;;;;;;;20.86;90.38;99443.31;6248140;28;20114;-90
2022/08/15 03:55:07;;;;;;;9.40;8.27;;;;;;;20.89;91.47;99438.63;6238958;28;20080;-91
2022/08/15 03:58:20;;;;;;;10.27;8.75;;;;;;;20.89;91.47;99436.00;6276614;28;20052;-91
2022/08/15 04:01:37;;;;;;;9.18;7.95;;;;;;;20.90;92.30;99451.59;6226327;28;20049;-91
2022/08/15 04:04:44;;;;;;;10.13;8.77;;;;;;;20.89;91.80;99446.53;6231467;28;20126;-91
2022/08/15 04:07:47;;;;;;;10.75;8.25;;;;;;;20.89;91.76;99449.16;6227614;28;20041;-91
2022/08/15 04:11:04;;;;;;;10.75;8.80;;;;;;;20.90;91.43;99446.31;6244680;28;20545;-91
2022/08/15 04:14:09;;;;;;;11.05;8.95;;;;;;;20.93;92.28;99445.91;6226584;28;20141;-91
2022/08/15 04:17:33;;;;;;;12.98;9.10;;;;;;;20.94;92.47;99446.69;6211565;28;20049;-91
2022/08/15 04:21:06;;;;;;;9.50;8.18;;;;;;;20.94;92.95;99446.69;6242801;28;20057;-91
2022/08/15 04:24:08;;;;;;;9.32;8.43;;;;;;;20.95;93.03;99449.13;6262176;28;20049;-91
2022/08/15 04:27:30;;;;;;;10.55;9.20;;;;;;;20.98;93.25;99451.31;6252344;28;20092;-90
2022/08/15 04:30:36;;;;;;;9.75;8.75;;;;;;;21.00;92.92;99448.47;6227913;28;20046;-91
2022/08/15 04:33:39;;;;;;;9.60;8.60;;;;;;;21.01;93.40;99440.34;6237554;28;20432;-91
2022/08/15 04:37:02;;;;;;;13.30;8.40;;;;;;;21.03;92.81;99440.16;6226602;28;20103;-91
2022/08/15 04:40:14;;;;;;;10.82;8.65;;;;;;;21.06;92.46;99447.59;6262127;28;20052;-91
2022/08/15 04:43:40;;;;;;;10.00;8.25;;;;;;;21.08;91.55;99451.63;6254849;28;20190;-91
2022/08/15 04:46:51;;;;;;;11.45;8.82;;;;;;;21.11;92.21;99444.31;6271573;28;20056;-91
2022/08/15 04:49:53;;;;;;;9.77;8.40;;;;;;;21.13;92.23;99439.66;6221567;28;20053;-91
2022/08/15 04:52:58;;;;;;;13.98;9.60;;;;;;;21.16;91.15;99444.47;6225971;28;20047;-91
2022/08/15 04:56:06;;;;;;;10.25;8.85;;;;;;;21.18;91.29;99443.25;6222593;28;20139;-91
2022/08/15 04:59:28;;;;;;;11.20;8.90;;;;;;;21.20;90.46;99437.75;6233233;28;20034;-91
2022/08/15 05:03:09;;;;;;;10.43;9.43;;;;;;;21.24;90.36;99436.28;6238299;28;20080;-91
2022/08/15 05:06:18;;;;;;;12.98;8.93;;;;;;;21.27;89.84;99433.25;6259832;28;20049;-91
2022/08/15 05:09:38;;;;;;;10.70;9.23;;;;;;;21.30;89.97;99436.22;6237704;28;20060;-91
2022/08/15 05:13:15;;;;;;;10.73;8.85;;;;;;;21.35;89.51;99429.53;6238943;28;20072;-91
2022/08/15 05:16:19;;;;;;;13.95;9.52;;;;;;;21.40;90.57;99429.69;6269254;28;20175;-90
2022/08/15 05:19:21;;;;;;;11.15;9.95;;;;;;;21.44;91.23;99428.22;6220741;28;20042;-91
2022/08/15 05:22:24;;;;;;;11.23;9.07;;;;;;;21.48;90.78;99430.19;6220870;28;20050;-91
2022/08/15 05:25:41;;;;;;;11.43;9.50;;;;;;;21.52;91.07;99425.31;6246532;28;20049;-91
2022/08/15 05:28:44;;;;;;;12.55;9.20;;;;;;;21.58;90.76;99432.31;6253267;28;20056;-91
2022/08/15 05:32:00;;;;;;;13.02;9.50;;;;;;;21.62;89.38;99422.97;6238091;28;20065;-91
2022/08/15 05:35:02;;;;;;;10.20;8.95;;;;;;;21.65;89.99;99426.97;6231250;28;20227;-91
2022/08/15 05:38:06;;;;;;;13.00;9.18;;;;;;;21.67;88.13;99428.38;6253489;28;20052;-91
2022/08/15 05:41:43;;;;;;;9.75;8.38;;;;;;;21.71;88.79;99432.19;6217513;28;20041;-91
2022/08/15 05:45:12;;;;;;;12.32;8.73;;;;;;;21.73;87.83;99427.47;6261178;28;20041;-91
2022/08/15 05:48:37;;;;;;;14.43;9.70;;;;;;;21.75;87.35;99429.09;6237864;28;20079;-91
2022/08/15 05:52:01;;;;;;;11.73;9.63;;;;;;;21.75;88.60;99418.56;6215973;28;20108;-91
2022/08/15 05:55:40;;;;;;;14.15;10.10;;;;;;;21.77;89.49;99417.31;6232249;28;20175;-91
2022/08/15 05:58:54;;;;;;;12.95;9.50;;;;;;;21.80;89.98;99422.13;6223208;28;20060;-91
2022/08/15 06:02:07;;;;;;;13.98;9.55;;;;;;;21.85;89.91;99422.28;6243037;28;20049;-91
2022/08/15 06:05:38;;;;;;;10.10;9.10;;;;;;;21.92;87.47;99423.00;6215558;28;20052;-91
2022/08/15 06:08:46;;;;;;;11.68;9.32;;;;;;;22.03;87.35;99437.25;6232744;28;20042;-91
2022/08/15 06:11:55;;;;;;;14.40;10.02;;;;;;;22.08;86.36;99426.84;6272247;28;20045;-91
2022/08/15 06:15:07;;;;;;;11.13;9.98;;;;;;;22.17;85.35;99434.44;6236769;28;20542;-91
2022/08/15 06:18:18;;;;;;;10.48;9.05;;;;;;;22.22;85.42;99427.50;6222186;28;20431;-90
2022/08/15 06:21:37;;;;;;;10.15;9.05;;;;;;;22.26;84.55;99418.13;6256547;28;20042;-91
2022/08/15 06:25:00;;;;;;;12.48;9.90;;;;;;;22.31;84.04;99418.25;6226699;28;20049;-91
2022/08/15 06:28:38;;;;;;;10.15;9.00;;;;;;;22.40;83.64;99423.19;6226247;28;20105;-91
2022/08/15 06:32:07;;;;;;;10.50;9.02;;;;;;;22.50;83.54;99428.72;6227366;28;20076;-91
2022/08/15 06:36:11;;;;;;;10.65;9.52;;;;;;;22.64;83.02;99419.56;6240216;28;20044;-91
2022/08/15 06:39:39;;;;;;;11.50;9.18;;;;;;;22.75;81.88;99428.53;6250947;28;20037;-91
2022/08/15 06:42:44;;;;;;;12.18;9.10;;;;;;;22.83;82.07;99428.22;6243233;28;20147;-91
2022/08/15 06:46:01;;;;;;;10.50;8.85;;;;;;;22.87;81.84;99421.41;6215716;28;20060;-92
2022/08/15 06:49:24;;;;;;;11.98;8.60;;;;;;;22.90;82.48;99428.88;6236737;28;20526;-91
2022/08/15 06:52:35;;;;;;;11.93;10.30;;;;;;;22.90;82.04;99441.28;6220914;28;20045;-91
2022/08/15 06:55:56;;;;;;;9.15;8.23;;;;;;;22.90;81.67;99436.78;6259343;28;20156;-91
2022/08/15 06:59:22;;;;;;;10.73;8.50;;;;;;;22.96;80.05;99435.88;6219233;28;20098;-91
2022/08/15 07:03:11;;;;;;;13.65;9.60;;;;;;;22.98;80.88;99430.41;6231894;28;20046;-92
2022/08/15 07:06:19;;;;;;;12.32;9.00;;;;;;;23.01;82.08;99424.69;6259256;28;20149;-91
2022/08/15 07:09:37;;;;;;;11.07;9.20;;;;;;;23.06;82.85;99418.72;6224758;28;20595;-91
2022/08/15 07:13:10;;;;;;;10.18;8.85;;;;;;;23.08;82.77;99417.44;6227212;28;20525;-91
2022/08/15 07:16:27;;;;;;;11.82;9.20;;;;;;;23.12;82.89;99421.22;6244403;28;20046;-92
2022/08/15 07:19:35;;;;;;;12.32;9.20;;;;;;;23.14;82.79;99427.06;6232005;28;20056;-91
2022/08/15 07:22:43;;;;;;;10.45;8.70;;;;;;;23.13;82.02;99424.66;6284083;28;20064;-91
2022/08/15 07:25:57;;;;;;;11.20;9.10;;;;;;;23.14;82.78;99426.28;6225211;28;20535;-91
2022/08/15 07:29:17;;;;;;;12.25;9.77;;;;;;;23.10;82.22;99428.56;6271017;28;20102;-91
2022/08/15 07:32:45;;;;;;;11.07;8.40;;;;;;;23.09;83.39;99432.25;6253526;28;20045;-91
2022/08/15 07:36:06;;;;;;;13.02;8.52;;;;;;;23.06;83.90;99429.28;6266417;28;20056;-91
2022/08/15 07:39:38;;;;;;;12.73;9.15;;;;;;;23.01;83.02;99422.03;6237834;28;20348;-91
2022/08/15 07:42:46;;;;;;;17.55;9.18;;;;;;;22.96;83.92;99427.97;6226916;28;20054;-91
2022/08/15 07:46:14;;;;;;;20.15;9.77;;;;;;;22.94;82.96;99435.31;6229551;28;20049;-91
2022/08/15 07:49:32;;;;;;;14.63;8.60;;;;;;;22.91;82.83;99438.41;6270517;28;20048;-91
2022/08/15 07:52:37;;;;;;;11.77;8.65;;;;;;;22.87;83.00;99434.63;6275293;28;20046;-92
2022/08/15 07:56:14;;;;;;;46.67;11.05;;;;;;;22.79;85.21;99433.13;6240271;28;20481;-92
2022/08/15 07:59:40;;;;;;;26.30;13.93;;;;;;;22.17;100.00;99432.59;6237152;28;20075;-96
2022/08/15 08:03:31;;;;;;;18.10;12.23;;;;;;;21.41;100.00;99426.03;6217149;28;20407;-93
2022/08/15 08:06:53;;;;;;;16.20;12.20;;;;;;;21.14;100.00;99422.81;6259137;28;20060;-93
2022/08/15 08:10:35;;;;;;;15.10;12.02;;;;;;;21.01;100.00;99423.75;6234961;28;20049;-92
2022/08/15 08:14:00;;;;;;;14.73;12.50;;;;;;;20.91;100.00;99424.25;6228648;28;20045;-92
2022/08/15 08:17:39;;;;;;;21.02;13.57;;;;;;;20.92;100.00;99425.06;6261836;28;20144;-93
2022/08/15 08:21:11;;;;;;;25.45;15.20;;;;;;;20.86;100.00;99409.09;6233734;28;20821;-92
2022/08/15 08:24:53;;;;;;;20.30;12.68;;;;;;;20.93;100.00;99418.78;6243309;28;20175;-88
2022/08/15 08:28:10;;;;;;;15.13;13.40;;;;;;;21.01;100.00;99416.66;6242165;28;20049;-89
2022/08/15 08:31:40;;;;;;;16.38;13.23;;;;;;;21.09;100.00;99410.31;6265058;28;20041;-90
2022/08/15 08:35:19;;;;;;;15.68;14.05;;;;;;;21.30;100.00;99417.81;6223976;28;20061;-92
2022/08/15 08:38:37;;;;;;;23.13;15.25;;;;;;;21.46;100.00;99418.28;6244557;28;20032;-92
2022/08/15 08:42:18;;;;;;;18.83;15.02;;;;;;;21.71;100.00;99411.13;6245267;28;20052;-93
2022/08/15 08:45:42;;;;;;;20.48;15.73;;;;;;;21.92;100.00;99409.03;6239881;28;20208;-94
2022/08/15 08:49:16;;;;;;;18.02;15.23;;;;;;;22.26;100.00;99414.66;6242876;28;20044;-94
2022/08/15 08:52:40;;;;;;;18.25;15.40;;;;;;;22.80;100.00;99410.97;6224818;28;20048;-94
2022/08/15 08:55:56;;;;;;;17.65;13.93;;;;;;;23.35;100.00;99406.38;6228197;28;20052;-94
2022/08/15 08:59:16;;;;;;;21.52;14.15;;;;;;;23.82;100.00;99407.09;6264028;28;20388;-95
2022/08/15 09:02:29;;;;;;;17.55;14.27;;;;;;;24.32;100.00;99404.78;6213624;28;20045;-94
2022/08/15 09:05:37;;;;;;;15.95;14.32;;;;;;;24.78;100.00;99409.00;6230334;28;20053;-93
2022/08/15 09:09:07;;;;;;;17.45;13.73;;;;;;;25.22;100.00;99410.97;6223499;28;20492;-93
2022/08/15 09:15:48;;;;;;;17.52;12.10;;;;;;;25.78;100.00;99416.94;6231028;28;20480;-92
2022/08/15 09:19:16;;;;;;;16.95;12.80;;;;;;;26.03;100.00;99415.63;6224315;28;20042;-92
2022/08/15 09:22:19;;;;;;;14.18;11.73;;;;;;;26.29;100.00;99416.69;6224827;28;20041;-92
2022/08/15 09:25:24;;;;;;;13.15;11.70;;;;;;;26.54;100.00;99419.59;6219228;28;20049;-92
2022/08/15 09:28:41;;;;;;;13.70;11.95;;;;;;;26.70;100.00;99414.38;6208113;28;20129;-92
2022/08/15 09:31:54;;;;;;;12.05;10.93;;;;;;;26.71;98.82;99415.97;6233241;28;20038;-92
2022/08/15 09:35:15;;;;;;;12.23;11.00;;;;;;;26.67;97.80;99413.03;6219695;28;20037;-93
2022/08/15 09:38:49;;;;;;;13.30;10.88;;;;;;;26.58;99.44;99418.03;6233735;28;20164;-90
2022/08/15 09:42:10;;;;;;;13.95;10.32;;;;;;;26.45;96.10;99409.66;6224376;28;20108;-92
2022/08/15 09:45:50;;;;;;;13.75;10.82;;;;;;;26.31;98.72;99415.38;6233948;28;20045;-91
2022/08/15 09:49:02;;;;;;;12.02;10.02;;;;;;;26.20;98.26;99405.72;6234740;28;20049;-92
2022/08/15 09:52:30;;;;;;;11.57;9.48;;;;;;;26.13;97.15;99397.97;6234734;28;20132;-92
2022/08/15 09:55:46;;;;;;;11.27;8.90;;;;;;;26.04;92.40;99399.50;6271150;28;20500;-92
2022/08/15 09:59:07;;;;;;;12.57;9.30;;;;;;;26.02;92.56;99395.50;6234568;28;20038;-93
2022/08/15 10:02:27;;;;;;;10.80;9.70;;;;;;;26.03;94.67;99391.78;6233565;28;20578;-92
2022/08/15 10:05:43;;;;;;;;;;;;;;;25.99;88.12;99394.13;6233004;28;20038;-94
2022/08/15 10:08:50;;;;;;;10.60;9.55;;;;;;;26.04;90.37;99388.88;6236872;28;20405;-92
2022/08/15 10:12:07;;;;;;;11.70;9.82;;;;;;;26.08;91.47;99394.47;6226042;28;20034;-92
2022/08/15 10:15:35;;;;;;;13.02;9.65;;;;;;;26.17;88.62;99388.47;6230429;28;20038;-92
2022/08/15 10:18:51;;;;;;;11.20;9.43;;;;;;;26.39;83.13;99384.94;6239909;28;20041;-92
2022/08/15 10:21:55;;;;;;;11.77;9.02;;;;;;;26.54;81.65;99384.28;6258481;28;20041;-92
2022/08/15 10:25:16;;;;;;;9.60;8.70;;;;;;;26.74;78.98;99380.97;6214582;28;20121;-94
2022/08/15 10:28:22;;;;;;;9.68;8.60;;;;;;;26.93;75.45;99379.50;6237004;28;20092;-94
2022/08/15 10:31:53;;;;;;;9.65;8.63;;;;;;;27.24;74.84;99382.31;6229370;28;20399;-94
2022/08/15 10:35:41;;;;;;;9.82;8.23;;;;;;;27.58;67.90;99373.97;6236599;28;20045;-96
2022/08/15 10:39:21;;;;;;;9.10;8.18;;;;;;;27.90;66.55;99369.25;6251326;28;20120;-95
2022/08/15 10:42:36;;;;;;;8.48;7.68;;;;;;;28.21;66.56;99371.16;6161141;28;20065;-95
2022/08/15 10:45:53;;;;;;;8.25;7.43;;;;;;;28.32;60.07;99365.56;6142664;28;20062;-96
2022/08/15 10:49:21;;;;;;;11.33;7.77;;;;;;;28.28;62.92;99369.81;6158798;28;20070;-96
2022/08/15 10:52:43;;;;;;;;;;;;;;;28.31;56.95;99363.94;6167618;28;20051;-96
2022/08/15 10:55:46;;;;;;;10.15;8.15;;;;;;;28.41;59.51;99365.81;6160923;28;20499;-96
2022/08/15 10:59:15;;;;;;;9.77;8.68;;;;;;;28.59;64.58;99351.16;6158263;28;20562;-96
2022/08/15 11:02:43;;;;;;;8.38;7.57;;;;;;;28.64;58.19;99355.69;6160989;28;20047;-96
2022/08/15 11:06:12;;;;;;;8.57;7.68;;;;;;;28.65;58.92;99354.66;6146438;28;20046;-96
2022/08/15 11:09:18;;;;;;;10.75;7.25;;;;;;;28.73;59.21;99348.75;6135529;28;20047;-96
2022/08/15 11:12:21;;;;;;;9.35;7.45;;;;;;;28.86;56.82;99355.38;6143624;28;20094;-96
2022/08/15 11:15:32;;;;;;;8.82;7.75;;;;;;;29.14;56.14;99353.97;6160571;28;20105;-96
2022/08/15 11:18:38;;;;;;;9.40;7.75;;;;;;;29.31;54.70;99354.44;6183475;28;20630;-96
2022/08/15 11:22:16;;;;;;;9.20;7.80;;;;;;;29.50;53.74;99349.28;6240638;28;20040;-96
2022/08/15 11:25:23;;;;;;;9.13;7.70;;;;;;;29.54;52.04;99352.19;6268089;28;20041;-96
2022/08/15 11:28:28;;;;;;;9.15;8.25;;;;;;;29.25;53.93;99344.09;6232467;28;20044;-96
2022/08/15 11:31:54;;;;;;;9.30;8.27;;;;;;;28.99;54.20;99342.28;6225386;28;20416;-96
2022/08/15 11:35:24;;;;;;;9.75;8.85;;;;;;;28.97;56.78;99343.63;6215841;28;20034;-96
2022/08/15 11:38:29;;;;;;;9.00;8.10;;;;;;;28.96;53.16;99347.34;6143148;28;20055;-96
2022/08/15 11:41:41;;;;;;;9.38;8.50;;;;;;;28.91;52.96;99345.50;6159950;28;20047;-96
2022/08/15 11:45:03;;;;;;;9.82;8.85;;;;;;;28.73;53.75;99343.44;6170083;28;20090;-96
2022/08/15 11:48:18;;;;;;;9.93;8.98;;;;;;;28.71;54.86;99338.38;6143080;28;20067;-93
2022/08/15 11:51:33;;;;;;;9.60;8.63;;;;;;;28.76;55.50;99353.53;6164423;28;20166;-92
2022/08/15 11:54:35;;;;;;;8.90;8.10;;;;;;;28.87;54.70;99351.63;6163556;28;20160;-93
2022/08/15 11:57:50;;;;;;;11.43;8.82;;;;;;;29.09;53.05;99348.66;6163971;28;20668;-93
2022/08/15 12:00:57;;;;;;;8.68;7.78;;;;;;;29.22;51.88;99348.09;6163910;28;20159;-94
2022/08/15 12:04:07;;;;;;;8.80;7.70;;;;;;;29.46;52.12;99356.22;6159425;28;20496;-93
2022/08/15 12:07:30;;;;;;;8.77;7.90;;;;;;;29.59;50.56;99354.81;6161523;28;20081;-94
2022/08/15 12:10:40;;;;;;;11.00;8.23;;;;;;;29.68;49.92;99350.53;6163362;28;20432;-92
2022/08/15 12:14:12;;;;;;;7.68;6.90;;;;;;;29.46;50.21;99342.91;6154179;28;20057;-93
2022/08/15 12:17:30;;;;;;;9.30;7.88;;;;;;;29.65;50.81;99348.41;6229653;28;20405;-91
2022/08/15 12:20:54;;;;;;;7.97;7.18;;;;;;;29.66;53.07;99349.22;6239463;28;20106;-93
2022/08/15 12:23:58;;;;;;;7.95;7.15;;;;;;;28.96;55.96;99352.69;6247667;28;20150;-93
2022/08/15 12:27:01;;;;;;;8.20;7.30;;;;;;;28.38;59.80;99345.06;6241451;28;20037;-93
2022/08/15 12:30:08;;;;;;;12.60;8.00;;;;;;;27.95;60.30;99343.72;6249638;28;20045;-94
2022/08/15 12:33:11;;;;;;;7.88;7.15;;;;;;;27.67;63.29;99341.25;6235023;28;20046;-90
2022/08/15 12:36:13;;;;;;;7.55;6.70;;;;;;;27.92;58.05;99343.22;6231499;28;20128;-91
2022/08/15 12:39:40;;;;;;;8.60;6.65;;;;;;;28.44;54.18;99348.50;6234557;28;20046;-90
2022/08/15 12:42:45;;;;;;;6.53;5.87;;;;;;;28.95;51.41;99349.22;6230181;28;20997;-90
2022/08/15 12:45:58;;;;;;;6.88;5.90;;;;;;;29.29;47.99;99372.59;6238694;28;20049;-88
2022/08/15 12:49:02;;;;;;;7.18;6.07;;;;;;;29.61;47.60;99363.34;6246468;28;20046;-92
2022/08/15 12:52:05;;;;;;;6.03;5.43;;;;;;;30.19;45.34;99371.53;6227770;28;20487;-92
2022/08/15 12:55:09;;;;;;;6.60;5.80;;;;;;;30.45;45.06;99368.66;6247209;28;20051;-93
2022/08/15 12:58:11;;;;;;;8.35;5.68;;;;;;;30.35;43.88;99368.75;6240493;28;20505;-93
2022/08/15 13:01:18;;;;;;;6.82;5.75;;;;;;;30.49;44.19;99377.72;6244635;28;20513;-92
2022/08/15 13:04:33;;;;;;;6.32;5.70;;;;;;;30.66;43.63;99374.63;6230800;28;20471;-92
2022/08/15 13:07:55;;;;;;;5.82;5.28;;;;;;;30.93;42.15;99379.41;6240351;28;20171;-92
2022/08/15 13:11:18;;;;;;;4.72;4.10;;;;;;;31.60;39.54;99386.66;6236360;28;20064;-90
2022/08/15 13:14:20;;;;;;;4.22;3.83;;;;;;;31.83;38.65;99377.00;6225814;28;20038;-92
2022/08/15 13:17:25;;;;;;;4.68;4.13;;;;;;;31.49;38.44;99397.50;6237563;28;20037;-92
2022/08/15 13:24:09;;;;;;;3.92;3.63;;;;;;;30.80;38.72;99382.75;6246095;28;20056;-95
2022/08/15 13:27:21;;;;;;;7.28;3.75;;;;;;;30.51;39.43;99369.41;6240564;28;20347;-91
2022/08/15 13:30:23;;;;;;;4.03;3.60;;;;;;;30.70;39.52;99373.75;6240219;28;20044;-92
2022/08/15 13:33:43;;;;;;;3.42;3.13;;;;;;;30.96;38.19;99365.50;6238087;28;20052;-91
2022/08/15 13:36:51;;;;;;;4.13;3.00;;;;;;;30.84;38.57;99378.47;6242901;28;20053;-92
2022/08/15 13:39:56;;;;;;;3.42;3.13;;;;;;;30.62;38.07;99381.59;6225621;28;20045;-91
2022/08/15 13:43:02;;;;;;;4.00;3.60;;;;;;;30.52;39.07;99373.69;6218229;28;20038;-92
2022/08/15 13:46:18;;;;;;;3.42;3.13;;;;;;;30.46;39.55;99376.41;6242477;28;20037;-92
2022/08/15 13:49:32;;;;;;;3.13;2.88;;;;;;;30.41;38.59;99373.78;6254834;28;20160;-91
2022/08/15 13:52:35;;;;;;;4.40;2.88;;;;;;;30.21;39.44;99382.72;6246151;28;20046;-91
2022/08/15 13:55:52;;;;;;;3.47;3.17;;;;;;;30.01;39.30;99383.69;6245931;28;20049;-91
2022/08/15 13:58:57;;;;;;;3.25;2.95;;;;;;;29.58;40.48;99382.56;6235862;28;20403;-91
2022/08/15 14:02:01;;;;;;;3.95;2.92;;;;;;;29.24;42.78;99393.91;6232105;28;20038;-91
2022/08/15 14:05:23;;;;;;;6.00;5.03;;;;;;;28.89;47.65;99390.25;6238593;28;20034;-91
2022/08/15 14:08:26;;;;;;;8.95;6.20;;;;;;;28.48;51.44;99394.88;6231395;28;20407;-91
2022/08/15 14:11:48;;;;;;;8.55;6.28;;;;;;;28.09;52.66;99390.03;6231876;28;20033;-90
2022/08/15 14:14:59;;;;;;;6.22;5.63;;;;;;;27.79;54.55;99401.38;6225453;28;20514;-90
2022/08/15 14:18:08;;;;;;;7.63;5.37;;;;;;;27.58;56.39;99395.22;6234559;28;20045;-90
2022/08/15 14:21:30;;;;;;;6.78;5.78;;;;;;;27.50;56.51;99393.84;6267180;28;20046;-90
2022/08/15 14:24:34;;;;;;;8.00;4.90;;;;;;;27.47;57.13;99397.03;6225125;28;20077;-90
2022/08/15 14:27:56;;;;;;;8.07;5.88;;;;;;;27.37;58.30;99410.28;6230371;28;20044;-90
2022/08/15 14:30:59;;;;;;;6.90;5.88;;;;;;;27.21;58.79;99420.06;6226778;28;20049;-90
2022/08/15 14:34:23;;;;;;;7.00;6.18;;;;;;;26.96;59.60;99431.31;6226914;28;20092;-90
2022/08/15 14:37:47;;;;;;;9.05;6.85;;;;;;;26.69;62.52;99434.03;6223522;28;20037;-90
2022/08/15 14:40:54;;;;;;;9.20;6.90;;;;;;;26.46;65.18;99448.41;6213511;28;20163;-90
2022/08/15 14:43:58;;;;;;;7.65;6.60;;;;;;;26.24;67.51;99441.31;6237586;28;20064;-91
2022/08/15 14:47:00;;;;;;;9.60;6.93;;;;;;;25.87;69.90;99443.88;6242328;28;20053;-91
2022/08/15 14:50:05;;;;;;;11.95;7.28;;;;;;;25.55;71.82;99463.06;6253231;28;20045;-91
2022/08/15 14:53:30;;;;;;;8.52;6.65;;;;;;;25.29;74.28;99475.16;6250775;28;20040;-91
2022/08/15 14:56:36;;;;;;;9.27;6.90;;;;;;;24.94;80.67;99473.56;6241088;28;20733;-91
2022/08/15 14:59:38;;;;;;;7.88;6.82;;;;;;;24.55;84.28;99476.13;6231869;28;20071;-92
2022/08/15 15:03:00;;;;;;;9.32;7.18;;;;;;;24.19;89.79;99474.66;6241187;28;20075;-91
2022/08/15 15:06:04;;;;;;;8.70;7.22;;;;;;;23.79;96.73;99480.75;6226024;28;20038;-90
2022/08/15 15:09:28;;;;;;;9.93;7.05;;;;;;;23.38;100.00;99499.19;6225539;28;20125;-90
2022/08/15 15:12:33;;;;;;;8.88;6.82;;;;;;;23.06;100.00;99501.34;6226587;28;20052;-90
2022/08/15 15:15:46;;;;;;;13.13;6.47;;;;;;;22.82;100.00;99491.75;6249886;28;20050;-89
2022/08/15 15:19:12;;;;;;;14.40;6.50;;;;;;;22.51;100.00;99489.16;6226905;28;20044;-89
2022/08/15 15:22:20;;;;;;;8.55;6.32;;;;;;;22.33;100.00;99490.03;6220741;28;20513;-89